Time;durP1;ratioP1;P1;durP2;ratioP2;P2;SDS_P1;SDS_P2;PMS_P1;PMS_P2;Temp;Humidity;BMP_temperature;BMP_pressure;BME280_temperature;BME280_humidity;BME280_pressure;Samples;Min_cycle;Max_cycle;Signal;HPM_P1;HPM_P2
2024/03/30 05:00:40;;;;;;;1.58;1.58;;;9.10;99.90;;;;;;6206576;22;20255;-72
2024/03/30 05:03:06;;;;;;;2.25;2.15;;;9.10;99.90;;;;;;6307048;22;20167;-72
2024/03/30 05:05:32;;;;;;;2.20;2.10;;;9.10;99.90;;;;;;6307055;22;20254;-72
2024/03/30 05:07:58;;;;;;;2.60;2.40;;;9.00;99.90;;;;;;6307239;22;20187;-71
2024/03/30 05:10:25;;;;;;;1.73;1.73;;;9.00;99.90;;;;;;6305887;22;20207;-71
2024/03/30 05:12:50;;;;;;;2.38;2.17;;;9.00;99.90;;;;;;6305780;22;20184;-71
2024/03/30 05:15:17;;;;;;;3.43;3.20;;;9.10;99.90;;;;;;6305564;22;20182;-71
2024/03/30 05:17:44;;;;;;;2.28;2.20;;;9.10;99.90;;;;;;6305678;22;20466;-71
2024/03/30 05:22:55;;;;;;;2.10;2.10;;;9.10;99.90;;;;;;6305530;22;20217;-71
2024/03/30 05:25:21;;;;;;;2.28;2.13;;;9.10;99.90;;;;;;6305180;22;20180;-71
2024/03/30 05:27:48;;;;;;;2.57;2.47;;;9.20;99.90;;;;;;6305483;22;20178;-71
2024/03/30 05:30:15;;;;;;;2.92;2.72;;;9.20;99.90;;;;;;6305484;22;20199;-74
2024/03/30 05:32:41;;;;;;;1.90;1.80;;;9.20;99.90;;;;;;6305639;22;20188;-74
2024/03/30 05:35:10;;;;;;;2.07;1.90;;;9.20;99.90;;;;;;6305211;22;20695;-74
2024/03/30 05:37:35;;;;;;;3.10;2.90;;;9.20;99.90;;;;;;6305452;22;20511;-74
2024/03/30 05:40:02;;;;;;;2.10;2.00;;;9.20;99.90;;;;;;6305091;22;20172;-73
2024/03/30 05:42:28;;;;;;;2.47;2.33;;;9.20;99.90;;;;;;6305050;22;20202;-74
2024/03/30 05:44:56;;;;;;;1.87;1.77;;;9.20;99.90;;;;;;6305120;22;20207;-73
2024/03/30 05:47:21;;;;;;;1.65;1.65;;;9.30;99.90;;;;;;6304196;22;20186;-73
2024/03/30 05:49:48;;;;;;;1.53;1.53;;;9.30;99.90;;;;;;6305095;22;20278;-73
2024/03/30 05:52:15;;;;;;;1.90;1.77;;;9.30;99.90;;;;;;6305059;22;20203;-75
2024/03/30 05:54:42;;;;;;;1.95;1.95;;;9.30;99.90;;;;;;6305340;22;20234;-73
2024/03/30 05:57:07;;;;;;;1.65;1.65;;;9.40;99.90;;;;;;6304918;22;20183;-73
2024/03/30 05:59:34;;;;;;;3.27;3.07;;;9.40;99.90;;;;;;6305030;22;20497;-73
2024/03/30 06:02:00;;;;;;;2.40;2.30;;;9.40;99.90;;;;;;6304157;22;20207;-74
2024/03/30 06:04:27;;;;;;;2.43;2.27;;;9.40;99.90;;;;;;6314946;22;20182;-74
2024/03/30 06:06:53;;;;;;;2.03;1.92;;;9.50;99.90;;;;;;6304672;22;20176;-74
2024/03/30 06:09:21;;;;;;;2.28;2.17;;;9.50;99.90;;;;;;6304726;22;20203;-74
2024/03/30 06:11:47;;;;;;;2.67;2.58;;;9.50;99.90;;;;;;6305073;22;20283;-74
2024/03/30 06:14:13;;;;;;;3.05;2.95;;;9.50;99.90;;;;;;6304757;22;20186;-74
2024/03/30 06:16:42;;;;;;;2.20;2.10;;;9.50;99.90;;;;;;6304549;22;20172;-74
2024/03/30 06:19:08;;;;;;;2.40;2.20;;;9.50;99.90;;;;;;6304931;22;20506;-74
2024/03/30 06:21:35;;;;;;;2.27;2.27;;;9.60;99.90;;;;;;6305059;22;20199;-73
2024/03/30 06:24:01;;;;;;;2.13;2.13;;;9.60;99.90;;;;;;6304617;22;20209;-73
2024/03/30 06:26:29;;;;;;;1.63;1.63;;;9.70;99.90;;;;;;6304260;22;20585;-74
2024/03/30 06:28:55;;;;;;;1.50;1.40;;;9.70;99.90;;;;;;6304854;22;20183;-74
2024/03/30 06:31:22;;;;;;;2.33;2.23;;;9.70;99.90;;;;;;6304555;22;20690;-74
2024/03/30 06:33:48;;;;;;;2.00;1.90;;;9.80;99.90;;;;;;6304765;22;20182;-74
2024/03/30 06:36:15;;;;;;;2.20;2.10;;;9.80;99.90;;;;;;6304373;22;20180;-74
2024/03/30 06:38:40;;;;;;;2.28;2.17;;;9.90;99.90;;;;;;6304423;22;20184;-74
2024/03/30 06:44:01;;;;;;;2.75;2.53;;;10.00;99.90;;;;;;6248705;22;20233;-74
2024/03/30 06:46:28;;;;;;;2.38;2.20;;;10.10;99.90;;;;;;6304110;22;20180;-74
2024/03/30 06:48:55;;;;;;;2.53;2.42;;;10.10;99.90;;;;;;6304469;22;20518;-74
2024/03/30 06:51:21;;;;;;;2.63;2.42;;;10.20;99.90;;;;;;6304309;22;20215;-74
2024/03/30 06:53:47;;;;;;;2.63;2.55;;;10.30;99.90;;;;;;6304241;22;20250;-73
2024/03/30 06:56:14;;;;;;;3.03;2.93;;;10.40;99.90;;;;;;6304172;22;20172;-74
2024/03/30 06:58:39;;;;;;;3.08;2.88;;;10.50;99.90;;;;;;6304505;22;20521;-74
2024/03/30 07:01:09;;;;;;;3.53;3.23;;;10.60;99.90;;;;;;6304105;22;20261;-74
2024/03/30 07:03:34;;;;;;;2.95;2.85;;;10.60;99.90;;;;;;6304814;22;20515;-74
2024/03/30 07:06:01;;;;;;;2.90;2.80;;;10.70;99.90;;;;;;6304563;22;20179;-74
2024/03/30 07:08:27;;;;;;;2.30;2.20;;;10.90;99.90;;;;;;6304936;22;20512;-74
2024/03/30 07:10:54;;;;;;;2.60;2.42;;;11.00;99.90;;;;;;6304380;22;20482;-74
2024/03/30 07:13:19;;;;;;;2.90;2.80;;;11.10;99.90;;;;;;6304716;22;20234;-74
2024/03/30 07:15:46;;;;;;;3.17;2.97;;;11.20;99.90;;;;;;6304568;22;20707;-74
2024/03/30 07:18:13;;;;;;;2.70;2.53;;;11.30;99.90;;;;;;6304547;22;20179;-74
2024/03/30 07:20:40;;;;;;;2.60;2.50;;;11.40;99.90;;;;;;6304775;22;20438;-73
2024/03/30 07:23:05;;;;;;;3.37;3.17;;;11.40;99.90;;;;;;6306524;22;20421;-73
2024/03/30 07:25:33;;;;;;;4.27;3.87;;;11.50;99.90;;;;;;6306328;22;20418;-73
2024/03/30 07:27:58;;;;;;;3.13;2.73;;;11.60;99.90;;;;;;6306870;22;20299;-73
2024/03/30 07:30:25;;;;;;;2.30;2.30;;;11.70;99.90;;;;;;6306756;22;20466;-74
2024/03/30 07:32:51;;;;;;;2.20;2.10;;;11.70;99.90;;;;;;6306845;22;20187;-74
2024/03/30 07:35:19;;;;;;;2.80;2.33;;;11.80;99.90;;;;;;6306961;22;20427;-74
2024/03/30 07:37:44;;;;;;;2.80;2.60;;;11.90;99.90;;;;;;6306619;22;20180;-73
2024/03/30 07:40:11;;;;;;;2.53;2.43;;;12.00;99.90;;;;;;6307499;22;20421;-73
2024/03/30 07:42:37;;;;;;;2.10;2.03;;;12.00;99.90;;;;;;6307073;22;20191;-75
2024/03/30 07:45:04;;;;;;;2.50;2.50;;;12.10;99.90;;;;;;6306975;22;20422;-73
2024/03/30 07:47:30;;;;;;;2.20;2.10;;;12.10;99.90;;;;;;6307250;22;20507;-73
2024/03/30 07:49:57;;;;;;;2.60;2.50;;;12.10;99.90;;;;;;6307356;22;20442;-75
2024/03/30 07:52:24;;;;;;;3.00;2.40;;;12.20;99.90;;;;;;6306223;22;20196;-74
2024/03/30 07:54:50;;;;;;;1.67;1.67;;;12.30;99.90;;;;;;6306420;22;20423;-74
2024/03/30 07:57:16;;;;;;;2.20;2.10;;;12.30;99.90;;;;;;6316135;22;20724;-75
2024/03/30 07:59:43;;;;;;;2.20;2.17;;;12.40;99.90;;;;;;6306407;22;20414;-74
2024/03/30 08:02:09;;;;;;;2.00;1.90;;;12.40;99.90;;;;;;6305890;22;20203;-73
2024/03/30 08:04:36;;;;;;;2.43;2.20;;;12.50;99.90;;;;;;6306089;22;20700;-74
2024/03/30 08:07:02;;;;;;;2.20;2.00;;;12.60;99.90;;;;;;6306075;22;20184;-74
2024/03/30 08:09:30;;;;;;;2.87;2.77;;;12.60;99.90;;;;;;6306305;22;20448;-74
2024/03/30 08:11:56;;;;;;;1.97;1.87;;;12.70;99.90;;;;;;6306395;22;20440;-75
2024/03/30 08:14:22;;;;;;;2.27;2.17;;;12.90;99.90;;;;;;6306214;22;20426;-75
2024/03/30 08:16:48;;;;;;;3.60;3.30;;;12.90;99.90;;;;;;6305756;22;20187;-74
2024/03/30 08:19:17;;;;;;;1.80;1.80;;;13.00;99.90;;;;;;6306554;22;20418;-74
2024/03/30 08:21:44;;;;;;;2.60;2.40;;;13.00;99.90;;;;;;6306165;22;20227;-74
2024/03/30 08:24:10;;;;;;;1.93;1.83;;;13.20;99.90;;;;;;6305642;22;20464;-75
2024/03/30 08:26:38;;;;;;;2.20;2.10;;;13.20;99.90;;;;;;6306169;22;20418;-75
2024/03/30 08:29:04;;;;;;;1.63;1.63;;;13.30;99.90;;;;;;6306266;22;20414;-74
2024/03/30 08:31:31;;;;;;;1.73;1.73;;;13.50;99.90;;;;;;6305482;22;20453;-74
2024/03/30 08:33:57;;;;;;;2.40;2.30;;;13.60;99.90;;;;;;6305501;22;20414;-75
2024/03/30 08:36:23;;;;;;;2.23;2.13;;;13.70;99.90;;;;;;6305670;22;20746;-75
2024/03/30 08:38:49;;;;;;;2.20;2.00;;;13.80;99.90;;;;;;6306124;22;20184;-75
2024/03/30 08:41:16;;;;;;;1.70;1.70;;;13.90;99.90;;;;;;6305877;22;20444;-75
2024/03/30 08:43:43;;;;;;;3.27;2.97;;;13.90;99.90;;;;;;6306042;22;20461;-75
2024/03/30 08:46:10;;;;;;;1.80;1.80;;;14.00;99.90;;;;;;6305718;22;20733;-75
2024/03/30 08:48:36;;;;;;;2.70;2.50;;;14.10;99.90;;;;;;6305942;22;20429;-75
2024/03/30 08:51:03;;;;;;;2.20;2.10;;;14.20;99.90;;;;;;6305965;22;20474;-75
2024/03/30 08:53:29;;;;;;;2.20;2.10;;;14.30;99.90;;;;;;6305973;22;20421;-75
2024/03/30 08:55:59;;;;;;;2.10;2.00;;;14.40;99.90;;;;;;6305741;22;20424;-75
2024/03/30 08:58:25;;;;;;;1.47;1.37;;;14.40;99.90;;;;;;6305720;22;20179;-75
2024/03/30 09:00:54;;;;;;;2.40;2.30;;;14.50;99.90;;;;;;6305631;22;20449;-74
2024/03/30 09:03:20;;;;;;;1.97;1.93;;;14.60;99.90;;;;;;6305695;22;20843;-74
2024/03/30 09:05:47;;;;;;;2.40;2.27;;;14.70;99.90;;;;;;6305673;22;20425;-74
2024/03/30 09:08:13;;;;;;;1.57;1.47;;;14.70;99.90;;;;;;6305692;22;20414;-75
2024/03/30 09:10:41;;;;;;;1.37;1.37;;;14.70;99.90;;;;;;6305546;22;20450;-75
2024/03/30 09:13:06;;;;;;;1.40;1.37;;;14.80;99.90;;;;;;6305834;22;20414;-75
2024/03/30 09:15:33;;;;;;;1.83;1.73;;;15.00;99.90;;;;;;6305564;22;20421;-75
2024/03/30 09:18:02;;;;;;;1.30;1.30;;;15.10;99.90;;;;;;6305744;22;20176;-75
2024/03/30 09:20:29;;;;;;;1.90;1.60;;;15.10;99.90;;;;;;6305604;22;20785;-75
2024/03/30 09:22:54;;;;;;;1.40;1.40;;;15.20;99.90;;;;;;6305637;22;20425;-75
2024/03/30 09:25:21;;;;;;;1.50;1.40;;;15.30;99.90;;;;;;6305405;22;20426;-75
2024/03/30 09:27:47;;;;;;;1.90;1.80;;;15.40;99.90;;;;;;6305440;22;20421;-75
2024/03/30 09:30:14;;;;;;;1.60;1.60;;;15.50;99.90;;;;;;6305336;22;20437;-75
2024/03/30 09:32:40;;;;;;;1.30;1.30;;;15.60;99.90;;;;;;6305363;22;20180;-74
2024/03/30 09:35:09;;;;;;;1.33;1.33;;;15.70;99.90;;;;;;6305809;22;20418;-74
2024/03/30 09:37:35;;;;;;;1.03;1.03;;;15.80;99.90;;;;;;6305564;22;20475;-75
2024/03/30 09:40:01;;;;;;;2.13;1.97;;;15.80;99.90;;;;;;6305568;22;20930;-75
2024/03/30 09:42:30;;;;;;;1.63;1.53;;;15.80;99.90;;;;;;6305238;22;20434;-75
2024/03/30 09:44:58;;;;;;;1.60;1.50;;;15.80;99.90;;;;;;6304578;22;20418;-75
2024/03/30 09:47:25;;;;;;;1.13;1.13;;;15.90;99.90;;;;;;6304366;22;20422;-75
2024/03/30 09:49:52;;;;;;;1.33;1.33;;;16.00;99.90;;;;;;6305032;22;20445;-75
2024/03/30 09:52:23;;;;;;;1.77;1.67;;;16.10;99.90;;;;;;6304664;22;20766;-75
2024/03/30 09:54:51;;;;;;;2.10;1.30;;;16.20;99.90;;;;;;6304549;22;20453;-75
2024/03/30 09:57:17;;;;;;;0.90;0.90;;;16.40;99.90;;;;;;6304489;22;20937;-75
2024/03/30 09:59:44;;;;;;;0.97;0.97;;;16.60;99.90;;;;;;6304908;22;20418;-74
2024/03/30 10:02:10;;;;;;;2.57;0.90;;;16.70;99.90;;;;;;6304434;22;20442;-75
2024/03/30 10:04:37;;;;;;;1.40;1.40;;;16.80;99.90;;;;;;6304734;22;20472;-75
2024/03/30 10:07:08;;;;;;;1.40;0.87;;;16.90;99.90;;;;;;6304486;22;20414;-75
2024/03/30 10:09:37;;;;;;;0.40;0.40;;;16.90;99.90;;;;;;6304095;22;20406;-75
2024/03/30 10:12:08;;;;;;;2.03;0.90;;;17.10;99.90;;;;;;6304265;22;21108;-75
2024/03/30 10:14:40;;;;;;;1.47;0.80;;;17.10;99.90;;;;;;6304762;22;20700;-75
2024/03/30 10:17:07;;;;;;;1.43;1.33;;;17.20;99.90;;;;;;6304784;22;20399;-74
2024/03/30 10:19:34;;;;;;;0.80;0.67;;;17.30;99.90;;;;;;6304843;22;20433;-75
2024/03/30 10:22:01;;;;;;;1.10;1.00;;;17.30;99.90;;;;;;6304889;22;20442;-74
2024/03/30 10:24:30;;;;;;;2.13;0.90;;;17.40;99.90;;;;;;6304689;22;20468;-74
2024/03/30 10:26:57;;;;;;;1.30;0.90;;;17.40;99.90;;;;;;6304725;22;20483;-75
2024/03/30 10:29:24;;;;;;;1.10;0.77;;;17.40;99.90;;;;;;6305150;22;20426;-75
2024/03/30 10:31:50;;;;;;;1.47;0.83;;;17.50;99.90;;;;;;6304769;22;20457;-75
2024/03/30 10:34:17;;;;;;;1.23;0.70;;;17.70;99.90;;;;;;6304238;22;20426;-74
2024/03/30 10:36:43;;;;;;;0.70;0.70;;;17.80;99.90;;;;;;6303891;22;21031;-75
2024/03/30 10:39:10;;;;;;;1.23;1.00;;;17.90;99.90;;;;;;6304598;22;20422;-75
2024/03/30 10:41:36;;;;;;;1.37;1.27;;;17.70;99.90;;;;;;6304661;22;20437;-74
2024/03/30 10:44:04;;;;;;;1.70;1.17;;;17.80;99.90;;;;;;6304582;22;20457;-74
2024/03/30 10:46:30;;;;;;;2.20;1.00;;;18.10;99.90;;;;;;6304525;22;20179;-74
2024/03/30 10:48:57;;;;;;;0.90;0.90;;;18.00;99.90;;;;;;6304647;22;20746;-74
2024/03/30 10:51:24;;;;;;;1.37;0.93;;;18.10;99.90;;;;;;6304902;22;20210;-74
2024/03/30 10:53:50;;;;;;;0.80;0.80;;;18.20;99.90;;;;;;6304787;22;20496;-75
2024/03/30 10:56:17;;;;;;;2.87;1.70;;;18.00;99.90;;;;;;6315038;22;20418;-75
2024/03/30 10:58:44;;;;;;;3.23;0.80;;;17.80;99.90;;;;;;6304874;22;20433;-74
2024/03/30 11:01:12;;;;;;;0.90;0.90;;;17.60;99.90;;;;;;6304652;22;20438;-75
2024/03/30 11:03:40;;;;;;;2.53;0.97;;;17.60;99.90;;;;;;6304925;22;20973;-75
2024/03/30 11:06:07;;;;;;;2.10;0.93;;;17.60;99.90;;;;;;6304889;22;20414;-75
2024/03/30 11:08:37;;;;;;;0.90;0.90;;;18.00;99.90;;;;;;6304726;22;20914;-75
2024/03/30 11:11:04;;;;;;;1.20;1.20;;;17.90;99.90;;;;;;6305025;22;20441;-75
2024/03/30 11:13:31;;;;;;;1.10;1.10;;;18.10;99.90;;;;;;6305234;22;20733;-75
2024/03/30 11:16:00;;;;;;;8.80;1.23;;;18.40;99.90;;;;;;6304497;22;20414;-75
2024/03/30 11:18:38;;;;;;;8.70;1.87;;;18.60;99.90;;;;;;6304383;22;20805;-75
2024/03/30 11:21:14;;;;;;;3.20;1.20;;;18.60;99.90;;;;;;6314204;22;20440;-76
2024/03/30 11:23:45;;;;;;;1.60;1.07;;;18.80;99.90;;;;;;6304454;22;20555;-75
2024/03/30 11:26:12;;;;;;;3.70;1.27;;;18.80;99.90;;;;;;6304536;22;20406;-75
2024/03/30 11:28:51;;;;;;;3.57;1.43;;;18.70;99.90;;;;;;6304524;22;20422;-76
2024/03/30 11:31:22;;;;;;;1.23;0.87;;;18.70;99.90;;;;;;6304152;22;20458;-75
2024/03/30 11:33:59;;;;;;;2.60;1.07;;;18.80;99.90;;;;;;6304484;22;20704;-74
2024/03/30 11:36:33;;;;;;;3.80;2.80;;;18.80;99.90;;;;;;6303600;22;20398;-73
2024/03/30 11:39:11;;;;;;;1.60;1.20;;;18.80;99.90;;;;;;6304410;22;20418;-74
2024/03/30 11:41:41;;;;;;;2.40;0.70;;;18.90;99.90;;;;;;6303642;22;20488;-74
2024/03/30 11:44:09;;;;;;;1.60;1.10;;;18.80;99.90;;;;;;6304071;22;20513;-74
2024/03/30 11:46:37;;;;;;;5.80;1.20;;;18.80;99.90;;;;;;6304051;22;20437;-76
2024/03/30 11:49:06;;;;;;;9.13;1.27;;;18.80;99.90;;;;;;6304380;22;20433;-75
2024/03/30 11:51:32;;;;;;;0.97;0.93;;;18.80;99.90;;;;;;6304272;22;20454;-74
2024/03/30 11:53:59;;;;;;;2.87;1.23;;;18.90;99.90;;;;;;6304012;22;20476;-74
2024/03/30 11:56:32;;;;;;;3.33;1.27;;;18.90;99.90;;;;;;6303939;22;20176;-74
2024/03/30 11:59:01;;;;;;;1.00;0.90;;;19.00;99.90;;;;;;6304571;22;20403;-74
2024/03/30 12:01:27;;;;;;;5.10;1.80;;;19.00;99.90;;;;;;6303947;22;20442;-74
2024/03/30 12:03:54;;;;;;;2.33;1.70;;;19.00;99.90;;;;;;6304295;22;20849;-74
2024/03/30 12:06:21;;;;;;;9.27;1.40;;;19.10;99.90;;;;;;6303559;22;20487;-74
2024/03/30 12:08:49;;;;;;;1.47;1.37;;;19.30;99.90;;;;;;6315747;22;20450;-74
2024/03/30 12:11:15;;;;;;;3.90;1.37;;;19.30;99.90;;;;;;6316115;22;20471;-74
2024/03/30 12:13:43;;;;;;;1.30;1.20;;;19.30;99.90;;;;;;6305969;22;20937;-74
2024/03/30 12:16:09;;;;;;;2.57;1.60;;;19.40;99.90;;;;;;6305556;22;20421;-74
2024/03/30 12:18:36;;;;;;;1.57;1.37;;;19.30;99.90;;;;;;6306146;22;20723;-74
2024/03/30 12:21:03;;;;;;;1.50;1.40;;;19.30;99.90;;;;;;6305787;22;20441;-74
2024/03/30 12:23:31;;;;;;;7.17;1.30;;;19.20;99.90;;;;;;6305786;22;20487;-74
2024/03/30 12:25:59;;;;;;;9.10;1.80;;;19.20;99.90;;;;;;6305574;22;20418;-74
2024/03/30 12:28:26;;;;;;;1.93;1.40;;;19.30;99.90;;;;;;6305594;22;20974;-74
2024/03/30 12:30:53;;;;;;;3.60;0.90;;;19.40;99.90;;;;;;6305620;22;20500;-74
2024/03/30 12:33:21;;;;;;;3.20;1.43;;;19.40;99.90;;;;;;6305490;22;20418;-75
2024/03/30 12:35:47;;;;;;;3.40;1.80;;;19.40;99.90;;;;;;6305139;22;20905;-75
2024/03/30 12:38:15;;;;;;;4.43;1.40;;;19.40;99.90;;;;;;6306186;22;20418;-75
2024/03/30 12:40:43;;;;;;;1.50;1.40;;;19.50;99.90;;;;;;6305760;22;20196;-75
2024/03/30 12:43:12;;;;;;;1.80;1.43;;;19.60;99.90;;;;;;6305503;22;20906;-75
2024/03/30 12:45:38;;;;;;;1.77;1.47;;;19.60;99.90;;;;;;6305753;22;20414;-75
2024/03/30 12:48:05;;;;;;;7.57;1.50;;;19.60;99.90;;;;;;6306032;22;20424;-75
2024/03/30 12:50:31;;;;;;;2.83;1.73;;;19.60;99.90;;;;;;6305464;22;20214;-75
2024/03/30 12:53:00;;;;;;;3.60;2.90;;;19.60;99.90;;;;;;6305717;22;20418;-75
2024/03/30 12:55:26;;;;;;;2.00;1.13;;;19.60;99.90;;;;;;6305287;22;20176;-75
2024/03/30 12:57:56;;;;;;;2.33;1.80;;;19.60;99.90;;;;;;6305764;22;20464;-75
2024/03/30 13:00:22;;;;;;;1.30;1.30;;;19.50;99.90;;;;;;6305129;22;20410;-73
2024/03/30 13:02:59;;;;;;;1.23;1.20;;;19.40;99.90;;;;;;6305430;22;20407;-72
2024/03/30 13:05:29;;;;;;;0.97;0.90;;;19.40;99.90;;;;;;6305422;22;20756;-74
2024/03/30 13:07:57;;;;;;;3.97;1.20;;;19.20;99.90;;;;;;6305548;22;20472;-72
2024/03/30 13:10:24;;;;;;;1.57;1.47;;;19.10;99.90;;;;;;6304977;22;20997;-72
2024/03/30 13:12:51;;;;;;;2.10;1.43;;;19.00;99.90;;;;;;6305624;22;20422;-72
2024/03/30 13:15:19;;;;;;;1.90;1.20;;;18.90;99.90;;;;;;6305421;22;20414;-72
2024/03/30 13:17:46;;;;;;;5.93;1.97;;;18.80;99.90;;;;;;6305383;22;20483;-73
2024/03/30 13:20:13;;;;;;;2.50;1.13;;;18.80;99.90;;;;;;6305331;22;20436;-72
2024/03/30 13:22:41;;;;;;;2.37;1.60;;;18.70;99.90;;;;;;6305371;22;20422;-73
2024/03/30 13:25:07;;;;;;;1.60;1.20;;;18.60;99.90;;;;;;6305539;22;20414;-72
2024/03/30 13:27:34;;;;;;;3.83;2.60;;;18.60;99.90;;;;;;6305051;22;20501;-72
2024/03/30 13:30:00;;;;;;;3.90;1.30;;;18.60;99.90;;;;;;6305161;22;20418;-73
2024/03/30 13:32:28;;;;;;;3.47;2.43;;;18.60;99.90;;;;;;6304944;22;20781;-73
2024/03/30 13:34:54;;;;;;;4.23;1.93;;;18.60;99.90;;;;;;6304976;22;20657;-72
2024/03/30 13:37:21;;;;;;;2.93;1.67;;;18.60;99.90;;;;;;6305546;22;20418;-72
2024/03/30 13:39:47;;;;;;;3.60;1.70;;;18.60;99.90;;;;;;6305522;22;20413;-72
2024/03/30 13:42:14;;;;;;;2.27;1.67;;;18.60;99.90;;;;;;6305782;22;20479;-72
2024/03/30 13:44:39;;;;;;;6.30;1.83;;;18.60;99.90;;;;;;6305847;22;20922;-72
2024/03/30 13:47:07;;;;;;;3.77;1.60;;;18.70;99.90;;;;;;6306130;22;20440;-71
2024/03/30 13:49:34;;;;;;;6.03;1.57;;;18.70;99.90;;;;;;6306784;22;20179;-70
2024/03/30 13:52:01;;;;;;;4.93;1.80;;;18.60;99.90;;;;;;6306631;22;20442;-73
2024/03/30 13:54:26;;;;;;;1.17;1.17;;;18.70;99.90;;;;;;6306670;22;20524;-72
2024/03/30 13:56:57;;;;;;;2.47;1.50;;;18.60;99.90;;;;;;6306579;22;20425;-72
2024/03/30 13:59:23;;;;;;;2.10;2.00;;;18.60;99.90;;;;;;6311807;22;20164;-73
2024/03/30 14:01:50;;;;;;;6.13;1.60;;;18.60;99.90;;;;;;6313448;22;20982;-72
2024/03/30 14:04:16;;;;;;;4.10;1.63;;;18.50;99.90;;;;;;6315522;22;20175;-72
2024/03/30 14:06:44;;;;;;;5.10;1.40;;;18.50;99.90;;;;;;6309091;22;20499;-72
2024/03/30 14:09:09;;;;;;;3.03;1.77;;;18.50;99.90;;;;;;6304821;22;20179;-72
2024/03/30 14:11:36;;;;;;;8.77;2.17;;;18.50;99.90;;;;;;6304695;22;20442;-72
2024/03/30 14:14:02;;;;;;;5.30;1.53;;;18.50;99.90;;;;;;6304953;22;20282;-72
2024/03/30 14:16:29;;;;;;;1.60;1.50;;;18.50;99.90;;;;;;6304530;22;20418;-72
2024/03/30 14:18:55;;;;;;;4.90;2.17;;;18.50;99.90;;;;;;6304884;22;20421;-72
2024/03/30 14:21:21;;;;;;;2.63;2.03;;;18.50;99.90;;;;;;6304661;22;20790;-72
2024/03/30 14:23:49;;;;;;;2.07;2.00;;;18.60;99.90;;;;;;6304873;22;20184;-72
2024/03/30 14:26:16;;;;;;;4.23;3.90;;;18.60;99.90;;;;;;6304597;22;20426;-72
2024/03/30 14:28:41;;;;;;;3.80;2.20;;;18.70;99.90;;;;;;6304827;22;20414;-73
2024/03/30 14:31:08;;;;;;;1.60;1.50;;;18.80;99.90;;;;;;6304997;22;20500;-73
2024/03/30 14:33:34;;;;;;;1.93;1.80;;;18.80;99.90;;;;;;6304126;22;20180;-73
2024/03/30 14:36:01;;;;;;;6.90;2.90;;;18.80;99.90;;;;;;6304511;22;20471;-73
2024/03/30 14:38:29;;;;;;;6.77;2.43;;;18.90;99.90;;;;;;6304710;22;20176;-72
2024/03/30 14:40:57;;;;;;;4.20;1.50;;;18.90;99.90;;;;;;6304628;22;20766;-73
2024/03/30 14:43:23;;;;;;;2.50;1.90;;;18.90;99.90;;;;;;6304804;22;20410;-73
2024/03/30 14:45:50;;;;;;;2.20;1.77;;;18.90;99.90;;;;;;6304075;22;20914;-73
2024/03/30 14:48:16;;;;;;;2.20;2.00;;;18.90;99.90;;;;;;6304957;22;20421;-72
2024/03/30 14:50:43;;;;;;;3.73;2.27;;;18.90;99.90;;;;;;6304478;22;20449;-72
2024/03/30 14:53:09;;;;;;;5.27;2.07;;;18.80;99.90;;;;;;6304592;22;20421;-73
2024/03/30 14:55:35;;;;;;;5.23;1.60;;;18.80;99.90;;;;;;6304484;22;20454;-72
2024/03/30 14:58:03;;;;;;;6.20;1.67;;;18.80;99.90;;;;;;6304368;22;20259;-72
2024/03/30 15:00:30;;;;;;;4.53;1.80;;;18.80;99.90;;;;;;6304329;22;20458;-71
2024/03/30 15:02:56;;;;;;;5.83;4.13;;;18.80;99.90;;;;;;6304038;22;20866;-71
2024/03/30 15:05:23;;;;;;;2.90;1.50;;;18.80;99.90;;;;;;6304279;22;20424;-72
2024/03/30 15:07:49;;;;;;;3.33;1.37;;;18.80;99.90;;;;;;6304379;22;20187;-72
2024/03/30 15:10:15;;;;;;;3.23;1.77;;;18.80;99.90;;;;;;6304328;22;20417;-73
2024/03/30 15:12:41;;;;;;;3.10;2.20;;;18.80;99.90;;;;;;6304351;22;20192;-73
2024/03/30 15:15:09;;;;;;;5.53;1.87;;;18.70;99.90;;;;;;6304107;22;20468;-72
2024/03/30 15:17:35;;;;;;;3.67;2.03;;;18.70;99.90;;;;;;6304139;22;20179;-73
2024/03/30 15:20:03;;;;;;;6.10;2.57;;;18.60;99.90;;;;;;6304187;22;20444;-73
2024/03/30 15:22:29;;;;;;;4.20;2.50;;;18.60;99.90;;;;;;6304122;22;20192;-73
2024/03/30 15:24:56;;;;;;;2.07;1.97;;;18.60;99.90;;;;;;6304329;22;20513;-73
2024/03/30 15:27:21;;;;;;;5.53;2.20;;;18.50;99.90;;;;;;6304126;22;20190;-72
2024/03/30 15:32:31;;;;;;;5.40;1.87;;;18.50;99.90;;;;;;6302805;22;20202;-72
2024/03/30 15:34:58;;;;;;;7.57;2.57;;;18.40;99.90;;;;;;6304005;22;20452;-73
2024/03/30 15:37:25;;;;;;;4.53;1.90;;;18.40;99.90;;;;;;6304196;22;20449;-72
2024/03/30 15:39:52;;;;;;;1.90;1.80;;;18.40;99.90;;;;;;6303775;22;20424;-71
2024/03/30 15:42:18;;;;;;;2.30;1.73;;;18.30;99.90;;;;;;6304354;22;20442;-72
2024/03/30 15:44:45;;;;;;;4.30;1.63;;;18.30;99.90;;;;;;6306081;22;20429;-72
2024/03/30 15:47:14;;;;;;;2.30;1.90;;;18.30;99.90;;;;;;6306087;22;20414;-72
2024/03/30 15:49:42;;;;;;;3.90;2.47;;;18.20;99.90;;;;;;6305955;22;20856;-74
2024/03/30 15:52:08;;;;;;;4.03;2.17;;;18.20;99.90;;;;;;6306044;22;20446;-73
2024/03/30 15:54:35;;;;;;;5.73;2.07;;;18.10;99.90;;;;;;6306029;22;20505;-72
2024/03/30 15:57:02;;;;;;;6.37;2.10;;;18.10;99.90;;;;;;6305730;22;20621;-72
2024/03/30 15:59:27;;;;;;;5.43;3.10;;;18.00;99.90;;;;;;6306287;22;20500;-72
2024/03/30 16:01:54;;;;;;;4.20;1.97;;;17.90;99.90;;;;;;6305705;22;20476;-72
2024/03/30 16:04:21;;;;;;;3.03;2.03;;;17.80;99.90;;;;;;6306364;22;20176;-72
2024/03/30 16:06:49;;;;;;;2.23;2.03;;;17.70;99.90;;;;;;6315906;22;20420;-72
2024/03/30 16:09:14;;;;;;;3.60;2.10;;;17.70;99.90;;;;;;6306331;22;20525;-72
2024/03/30 16:11:41;;;;;;;6.97;3.13;;;17.60;99.90;;;;;;6306384;22;20448;-72
2024/03/30 16:14:08;;;;;;;15.93;3.23;;;17.50;99.90;;;;;;6305684;22;20180;-72
2024/03/30 16:16:34;;;;;;;2.90;2.47;;;17.50;99.90;;;;;;6305893;22;20414;-71
2024/03/30 16:19:00;;;;;;;10.37;2.07;;;17.40;99.90;;;;;;6306220;22;20425;-73
2024/03/30 16:21:27;;;;;;;5.87;2.60;;;17.30;99.90;;;;;;6306140;22;20249;-72
2024/03/30 16:23:54;;;;;;;3.27;2.10;;;17.30;99.90;;;;;;6305932;22;20429;-72
2024/03/30 16:26:21;;;;;;;3.17;1.97;;;17.20;99.90;;;;;;6306088;22;20751;-72
2024/03/30 16:28:46;;;;;;;3.07;2.60;;;17.10;99.90;;;;;;6305464;22;20414;-71
2024/03/30 16:31:13;;;;;;;2.90;2.57;;;17.10;99.90;;;;;;6305801;22;20464;-71
2024/03/30 16:33:39;;;;;;;7.70;4.90;;;17.00;99.90;;;;;;6305843;22;20199;-72
2024/03/30 16:36:06;;;;;;;6.33;3.07;;;16.80;99.90;;;;;;6305620;22;20422;-72
2024/03/30 16:38:32;;;;;;;9.60;5.17;;;16.90;99.90;;;;;;6305766;22;20595;-73
2024/03/30 16:41:05;;;;;;;4.63;3.13;;;16.80;99.90;;;;;;6305558;22;20540;-71
2024/03/30 16:43:31;;;;;;;9.57;3.87;;;16.80;99.90;;;;;;6305886;22;20164;-73
2024/03/30 16:45:57;;;;;;;9.47;5.13;;;16.70;99.90;;;;;;6305208;22;20419;-74
2024/03/30 16:48:23;;;;;;;8.87;6.20;;;16.60;99.90;;;;;;6305409;22;20680;-73
2024/03/30 16:50:53;;;;;;;8.90;6.77;;;16.60;99.90;;;;;;6305231;22;20444;-73
2024/03/30 16:53:19;;;;;;;13.20;8.33;;;16.50;99.90;;;;;;6305855;22;20167;-73
2024/03/30 16:55:46;;;;;;;10.13;6.57;;;16.50;99.90;;;;;;6305016;22;20496;-73
2024/03/30 16:58:13;;;;;;;15.40;7.70;;;16.40;99.90;;;;;;6305641;22;20186;-73
2024/03/30 17:00:40;;;;;;;20.43;8.87;;;16.30;99.90;;;;;;6305313;22;20500;-73
2024/03/30 17:03:05;;;;;;;12.37;6.57;;;16.30;99.90;;;;;;6305549;22;20399;-73
2024/03/30 17:05:32;;;;;;;16.40;7.57;;;16.20;99.90;;;;;;6304301;22;20424;-74
2024/03/30 17:07:58;;;;;;;7.00;5.90;;;16.10;99.90;;;;;;6304159;22;20180;-72
2024/03/30 17:10:24;;;;;;;11.10;5.70;;;16.10;99.90;;;;;;6302503;22;20425;-72
2024/03/30 17:12:50;;;;;;;10.17;7.27;;;16.10;99.90;;;;;;6303740;22;20294;-72
2024/03/30 17:15:18;;;;;;;6.60;6.00;;;16.10;99.90;;;;;;6304894;22;20753;-72
2024/03/30 17:17:46;;;;;;;9.60;6.47;;;16.00;99.90;;;;;;6304347;22;20516;-70
2024/03/30 17:20:13;;;;;;;13.43;8.00;;;15.90;99.90;;;;;;6303538;22;20540;-71
2024/03/30 17:22:39;;;;;;;9.33;6.73;;;15.90;99.90;;;;;;6304870;22;20410;-70
2024/03/30 17:25:05;;;;;;;19.27;8.27;;;15.80;99.90;;;;;;6304876;22;20418;-71
2024/03/30 17:27:32;;;;;;;8.50;6.67;;;15.70;99.90;;;;;;6304893;22;20511;-71
2024/03/30 17:29:58;;;;;;;11.97;5.30;;;15.70;99.90;;;;;;6304991;22;20471;-71
2024/03/30 17:32:26;;;;;;;10.90;5.90;;;15.60;99.90;;;;;;6304711;22;20452;-71
2024/03/30 17:34:58;;;;;;;12.73;8.80;;;15.50;99.90;;;;;;6304918;22;20441;-70
2024/03/30 17:37:23;;;;;;;9.60;6.23;;;15.40;99.90;;;;;;6304637;22;20500;-71
2024/03/30 17:39:50;;;;;;;6.00;4.90;;;15.40;99.90;;;;;;6301950;22;20449;-71
2024/03/30 17:42:16;;;;;;;6.30;5.23;;;15.30;99.90;;;;;;6299258;22;20235;-70
2024/03/30 17:44:43;;;;;;;8.07;5.10;;;15.30;99.90;;;;;;6302273;22;20501;-70
2024/03/30 17:47:08;;;;;;;5.17;4.63;;;15.30;99.90;;;;;;6301094;22;20184;-71
2024/03/30 17:49:36;;;;;;;10.90;5.03;;;15.10;99.90;;;;;;6300886;22;20420;-71
2024/03/30 17:52:02;;;;;;;6.47;3.80;;;15.10;99.90;;;;;;6301379;22;20206;-72
2024/03/30 17:54:29;;;;;;;9.17;3.53;;;15.10;99.90;;;;;;6303676;22;20418;-71